Time;durP1;ratioP1;P1;durP2;ratioP2;P2;SDS_P1;SDS_P2;PMS_P1;PMS_P2;Temp;Humidity;BMP_temperature;BMP_pressure;BME280_temperature;BME280_humidity;BME280_pressure;Samples;Min_cycle;Max_cycle;Signal;HPM_P1;HPM_P2
2021/05/07 00:00:54;;;;;;;1.33;1.17;;;;;;;9.94;66.52;95770.31;5033914;28;20425;-68
2021/05/07 00:03:20;;;;;;;1.20;1.10;;;;;;;9.97;65.92;95769.91;5039144;28;20913;-69
2021/05/07 00:05:53;;;;;;;10.13;1.23;;;;;;;9.80;67.04;95768.50;5031557;28;20446;-68
2021/05/07 00:08:20;;;;;;;1.40;1.10;;;;;;;10.25;65.19;95771.03;5031867;28;20417;-69
2021/05/07 00:10:45;;;;;;;1.10;1.00;;;;;;;9.78;66.51;95773.09;5051256;28;20454;-68
2021/05/07 00:13:11;;;;;;;1.20;1.10;;;;;;;9.82;66.45;95783.03;5032958;28;20825;-68
2021/05/07 00:15:37;;;;;;;1.53;1.10;;;;;;;10.13;65.79;95773.31;5032417;28;20200;-68
2021/05/07 00:18:02;;;;;;;1.10;1.00;;;;;;;10.20;65.42;95781.25;5031692;28;20198;-68
2021/05/07 00:20:28;;;;;;;1.17;1.07;;;;;;;9.97;66.46;95783.00;5032290;28;20221;-67
2021/05/07 00:22:53;;;;;;;1.40;1.30;;;;;;;10.12;66.37;95793.47;5032152;28;20916;-68
2021/05/07 00:25:19;;;;;;;1.10;1.00;;;;;;;10.35;65.24;95775.94;5031354;28;20196;-69
2021/05/07 00:27:44;;;;;;;1.00;0.90;;;;;;;9.98;67.32;95779.38;5031863;28;20195;-68
2021/05/07 00:30:11;;;;;;;1.00;0.90;;;;;;;10.27;65.59;95779.53;5032299;28;20283;-68
2021/05/07 00:32:36;;;;;;;1.13;1.03;;;;;;;9.76;66.82;95783.78;5032223;28;20639;-67
2021/05/07 00:35:02;;;;;;;1.10;1.00;;;;;;;9.95;67.08;95787.63;5032344;28;20450;-67
2021/05/07 00:37:27;;;;;;;1.20;1.10;;;;;;;9.93;66.57;95781.75;5032081;28;20189;-68
2021/05/07 00:39:53;;;;;;;1.50;1.40;;;;;;;9.53;68.25;95782.03;5031544;28;20286;-68
2021/05/07 00:42:18;;;;;;;1.30;1.20;;;;;;;9.46;68.15;95775.09;5030891;28;20724;-68
2021/05/07 00:44:44;;;;;;;1.30;1.20;;;;;;;9.48;68.33;95780.97;5032127;28;20257;-68
2021/05/07 00:47:10;;;;;;;1.23;1.13;;;;;;;9.52;68.58;95787.47;5032381;28;20615;-68
2021/05/07 00:49:37;;;;;;;1.20;1.10;;;;;;;9.28;69.03;95785.91;5031962;28;20262;-68
2021/05/07 00:52:04;;;;;;;1.17;1.07;;;;;;;9.55;68.76;95789.72;5031707;28;20208;-68
2021/05/07 00:54:30;;;;;;;2.00;1.73;;;;;;;9.50;68.40;95789.44;5031935;28;20512;-68
2021/05/07 00:56:56;;;;;;;1.30;1.20;;;;;;;9.54;68.19;95790.72;5031002;28;20415;-68
2021/05/07 00:59:22;;;;;;;1.30;1.20;;;;;;;9.57;67.86;95790.38;5047431;28;20519;-68
2021/05/07 01:01:48;;;;;;;2.40;1.00;;;;;;;9.54;68.09;95798.56;5030970;28;20180;-68
2021/05/07 01:04:15;;;;;;;1.10;1.00;;;;;;;9.59;68.04;95796.19;5030637;28;20183;-68
2021/05/07 01:06:42;;;;;;;1.20;1.10;;;;;;;9.72;68.33;95792.13;5032298;28;20495;-68
2021/05/07 01:09:07;;;;;;;1.20;1.10;;;;;;;9.70;67.64;95796.75;5033058;28;21055;-68
2021/05/07 01:11:33;;;;;;;3.93;1.30;;;;;;;9.80;67.99;95805.94;5031950;28;20430;-69
2021/05/07 01:13:59;;;;;;;1.40;1.30;;;;;;;9.45;68.41;95803.06;5039006;28;20232;-69
2021/05/07 01:16:25;;;;;;;1.17;1.07;;;;;;;9.61;67.58;95791.59;5031646;28;20904;-68
2021/05/07 01:18:50;;;;;;;1.20;1.10;;;;;;;9.96;67.05;95791.84;5034620;28;20202;-68
2021/05/07 01:21:16;;;;;;;1.30;1.20;;;;;;;9.94;67.28;95791.25;5051537;28;20172;-64
2021/05/07 01:23:41;;;;;;;1.63;1.50;;;;;;;9.79;67.92;95801.69;5039373;28;20571;-68
2021/05/07 01:26:07;;;;;;;1.20;1.10;;;;;;;10.07;67.16;95795.81;5032175;28;20233;-68
2021/05/07 01:28:34;;;;;;;1.10;1.00;;;;;;;9.98;67.42;95804.75;5032285;28;20184;-69
2021/05/07 01:31:00;;;;;;;1.20;1.10;;;;;;;9.94;67.67;95813.97;5032141;28;20610;-68
2021/05/07 01:33:26;;;;;;;1.20;1.10;;;;;;;9.92;67.33;95813.31;5030910;28;20426;-67
2021/05/07 01:35:53;;;;;;;1.00;0.90;;;;;;;9.79;67.83;95816.59;5030262;28;20838;-70
2021/05/07 01:38:19;;;;;;;1.13;1.03;;;;;;;9.66;67.83;95804.97;5032175;28;20933;-69
2021/05/07 01:40:47;;;;;;;1.00;0.90;;;;;;;9.74;67.74;95809.28;5023038;28;20469;-69
2021/05/07 01:43:13;;;;;;;1.67;1.33;;;;;;;9.46;68.12;95803.84;5032074;28;20229;-69
2021/05/07 01:45:41;;;;;;;1.00;0.90;;;;;;;9.20;68.65;95812.94;5031846;28;20454;-68
2021/05/07 01:48:07;;;;;;;1.00;0.90;;;;;;;9.08;69.30;95812.56;5032185;28;20526;-68
2021/05/07 01:50:38;;;;;;;2.53;1.10;;;;;;;8.96;69.50;95820.00;5030321;28;20457;-68
2021/05/07 01:53:05;;;;;;;1.20;1.00;;;;;;;8.85;70.08;95815.19;5030959;28;20921;-69
2021/05/07 01:55:42;;;;;;;0.90;0.80;;;;;;;8.98;70.70;95818.03;5030335;28;20439;-69
2021/05/07 01:58:10;;;;;;;1.87;1.10;;;;;;;9.25;69.58;95818.44;5030755;28;20411;-69
2021/05/07 02:00:35;;;;;;;2.07;1.10;;;;;;;9.21;69.56;95811.94;5030268;28;20431;-69
2021/05/07 02:03:04;;;;;;;1.33;1.23;;;;;;;9.20;70.16;95808.53;5031690;28;20425;-68
2021/05/07 02:05:32;;;;;;;1.73;1.20;;;;;;;9.26;69.47;95812.22;5040245;28;20207;-69
2021/05/07 02:07:58;;;;;;;1.73;1.20;;;;;;;9.49;69.14;95809.56;5030359;28;20430;-69
2021/05/07 02:10:26;;;;;;;1.00;0.90;;;;;;;9.19;70.00;95819.19;5030928;28;20451;-68
2021/05/07 02:12:53;;;;;;;1.17;1.07;;;;;;;9.38;69.06;95812.63;5030983;28;20501;-68
2021/05/07 02:15:20;;;;;;;1.20;1.10;;;;;;;9.07;70.60;95816.16;5031789;28;20866;-69
2021/05/07 02:17:46;;;;;;;1.10;1.00;;;;;;;9.07;70.11;95811.72;5032040;28;20483;-69
2021/05/07 02:20:13;;;;;;;1.30;1.20;;;;;;;9.33;69.57;95812.34;5030483;28;20961;-69
2021/05/07 02:22:40;;;;;;;1.50;1.10;;;;;;;9.47;69.22;95815.94;5030952;28;20202;-69
2021/05/07 02:25:06;;;;;;;1.30;1.20;;;;;;;9.40;68.73;95817.66;5029760;28;20449;-69
2021/05/07 02:27:32;;;;;;;2.10;1.23;;;;;;;8.97;70.53;95819.00;5031080;28;20429;-67
2021/05/07 02:29:57;;;;;;;4.13;1.37;;;;;;;9.12;69.65;95826.09;5029672;28;20890;-68
2021/05/07 02:32:23;;;;;;;1.30;1.20;;;;;;;9.13;69.97;95830.31;5033205;28;20216;-69
2021/05/07 02:34:49;;;;;;;1.30;0.90;;;;;;;9.37;69.19;95830.09;5033252;28;20204;-70
2021/05/07 02:37:14;;;;;;;1.23;1.03;;;;;;;9.47;68.73;95823.78;5033623;28;21280;-68
2021/05/07 02:39:40;;;;;;;1.40;1.03;;;;;;;9.48;68.46;95831.47;5034659;28;20222;-69
2021/05/07 02:42:06;;;;;;;4.07;1.83;;;;;;;9.46;68.54;95837.84;5034595;28;20178;-69
2021/05/07 02:44:31;;;;;;;26.90;7.07;;;;;;;9.43;68.65;95841.66;5034205;28;20210;-68
2021/05/07 02:47:03;;;;;;;5.20;2.43;;;;;;;9.54;68.35;95848.25;5034061;28;20845;-68
2021/05/07 02:49:31;;;;;;;4.77;2.03;;;;;;;9.46;68.36;95840.47;5034311;28;20172;-68
2021/05/07 02:51:56;;;;;;;5.17;2.20;;;;;;;9.29;69.71;95834.59;5034187;28;20480;-68
2021/05/07 02:54:22;;;;;;;19.20;6.03;;;;;;;9.51;68.27;95838.13;5034505;28;20494;-69
2021/05/07 02:56:47;;;;;;;31.07;7.93;;;;;;;9.45;69.59;95838.88;5033314;28;20199;-69
2021/05/07 02:59:15;;;;;;;3.70;1.80;;;;;;;9.16;68.86;95845.66;5034502;28;20281;-67
2021/05/07 03:01:41;;;;;;;1.37;0.80;;;;;;;9.05;69.75;95849.50;5033821;28;20211;-68
2021/05/07 03:04:06;;;;;;;1.30;0.90;;;;;;;9.32;69.22;95844.69;5034058;28;20454;-67
2021/05/07 03:06:32;;;;;;;2.40;1.23;;;;;;;9.37;69.36;95848.41;5035566;28;20619;-68
2021/05/07 03:08:57;;;;;;;1.20;1.00;;;;;;;9.13;69.63;95841.59;5048952;28;20175;-69
2021/05/07 03:11:23;;;;;;;1.40;1.30;;;;;;;9.20;69.88;95844.28;5050963;28;20309;-70
2021/05/07 03:13:48;;;;;;;4.40;1.40;;;;;;;9.05;70.43;95842.47;5028804;28;20192;-69
2021/05/07 03:16:14;;;;;;;3.67;1.70;;;;;;;8.91;70.90;95848.47;5049815;28;20207;-68
2021/05/07 03:18:40;;;;;;;1.90;1.80;;;;;;;8.67;72.21;95852.88;5034836;28;20200;-68
2021/05/07 03:21:05;;;;;;;63.37;15.87;;;;;;;8.70;71.88;95860.34;5035962;28;20187;-69
2021/05/07 03:23:31;;;;;;;143.03;31.07;;;;;;;8.78;72.09;95856.06;5047886;28;20202;-69
2021/05/07 03:25:56;;;;;;;186.00;32.93;;;;;;;8.67;72.07;95858.09;5050077;28;20227;-69
2021/05/07 03:28:22;;;;;;;98.57;21.03;;;;;;;8.59;72.19;95858.97;5049644;28;20239;-68
2021/05/07 03:30:48;;;;;;;34.23;9.50;;;;;;;8.50;73.22;95867.84;5030731;28;20216;-69
2021/05/07 03:33:13;;;;;;;103.97;23.50;;;;;;;8.29;73.25;95866.59;5032731;28;20810;-69
2021/05/07 03:35:39;;;;;;;25.73;7.10;;;;;;;8.33;73.33;95872.28;5033319;28;20245;-68
2021/05/07 03:38:05;;;;;;;4.33;2.70;;;;;;;7.69;74.96;95870.53;5034002;28;20183;-68
2021/05/07 03:40:31;;;;;;;7.77;3.00;;;;;;;7.82;74.72;95876.06;5033524;28;20176;-68
2021/05/07 03:42:57;;;;;;;3.90;3.33;;;;;;;7.96;74.28;95878.94;5032024;28;20493;-69
2021/05/07 03:45:23;;;;;;;16.73;6.57;;;;;;;7.83;75.26;95882.91;5037506;28;20537;-68
2021/05/07 03:47:48;;;;;;;5.57;3.70;;;;;;;8.05;73.90;95896.22;5033573;28;20657;-68
2021/05/07 03:50:14;;;;;;;15.47;6.37;;;;;;;7.76;74.19;95897.59;5033621;28;20203;-69
2021/05/07 03:52:43;;;;;;;5.77;3.63;;;;;;;7.67;74.78;95898.59;5032300;28;20191;-68
2021/05/07 03:55:10;;;;;;;7.97;4.40;;;;;;;7.69;74.04;95897.47;5033204;28;20196;-69
2021/05/07 03:57:36;;;;;;;72.60;17.33;;;;;;;7.59;75.40;95896.00;5033226;28;20450;-70
2021/05/07 04:00:04;;;;;;;5.80;2.50;;;;;;;7.68;74.49;95901.03;5035565;28;20548;-69
2021/05/07 04:02:30;;;;;;;3.77;2.50;;;;;;;7.63;74.50;95900.72;5032136;28;20180;-70
2021/05/07 04:04:55;;;;;;;7.03;2.40;;;;;;;7.44;75.02;95911.50;5032918;28;20441;-69
2021/05/07 04:07:21;;;;;;;1.97;1.73;;;;;;;7.32;75.10;95916.22;5033151;28;20176;-70
2021/05/07 04:09:56;;;;;;;2.17;1.70;;;;;;;7.28;74.64;95930.56;5032902;28;20180;-69
2021/05/07 04:14:48;;;;;;;1.97;1.50;;;;;;;7.33;74.24;95923.06;5033017;28;20534;-69
2021/05/07 04:17:13;;;;;;;1.43;1.33;;;;;;;7.05;75.70;95928.59;5032805;28;20680;-68
2021/05/07 04:19:39;;;;;;;1.40;1.30;;;;;;;7.15;75.18;95931.03;5032323;28;20286;-69
2021/05/07 04:22:05;;;;;;;1.67;1.57;;;;;;;7.16;74.83;95928.28;5031444;28;20187;-69
2021/05/07 04:24:30;;;;;;;1.43;1.33;;;;;;;7.01;75.40;95930.69;5032457;28;20191;-70
2021/05/07 04:26:56;;;;;;;1.43;1.30;;;;;;;7.21;74.14;95939.03;5032163;28;20422;-70
2021/05/07 04:29:23;;;;;;;1.37;1.27;;;;;;;7.20;74.48;95947.81;5032205;28;20176;-68
2021/05/07 04:31:48;;;;;;;1.83;1.10;;;;;;;7.37;73.99;95946.03;5031648;28;20190;-69
2021/05/07 04:34:14;;;;;;;1.60;1.20;;;;;;;7.21;74.38;95948.66;5033115;28;20809;-71
2021/05/07 04:36:40;;;;;;;1.50;1.40;;;;;;;6.99;74.92;95943.09;5030696;28;20477;-69
2021/05/07 04:39:06;;;;;;;1.50;1.40;;;;;;;7.24;73.98;95950.94;5031901;28;20203;-69
2021/05/07 04:41:31;;;;;;;1.93;1.60;;;;;;;6.99;75.10;95957.91;5032430;28;20176;-70
2021/05/07 04:43:57;;;;;;;1.63;1.53;;;;;;;7.35;74.18;95958.44;5032497;28;20514;-69
2021/05/07 04:46:23;;;;;;;1.97;1.87;;;;;;;7.10;74.79;95965.41;5031246;28;20199;-70
2021/05/07 04:48:49;;;;;;;1.67;1.37;;;;;;;7.34;74.60;95966.41;5031486;28;20176;-68
2021/05/07 04:51:14;;;;;;;1.60;1.50;;;;;;;7.31;74.59;95977.16;5032211;28;20702;-68
2021/05/07 04:53:40;;;;;;;4.97;2.47;;;;;;;7.06;75.85;95980.53;5031743;28;20472;-70
2021/05/07 04:56:05;;;;;;;2.17;1.63;;;;;;;7.03;75.82;95973.03;5030768;28;20211;-70
2021/05/07 04:58:31;;;;;;;1.90;1.80;;;;;;;6.87;76.18;95986.84;5032555;28;20198;-69
2021/05/07 05:00:57;;;;;;;1.80;1.70;;;;;;;7.02;76.19;95988.84;5032846;28;20258;-70
2021/05/07 05:03:23;;;;;;;1.60;1.50;;;;;;;7.29;75.57;95994.75;5032642;28;20183;-68
2021/05/07 05:05:49;;;;;;;1.83;1.70;;;;;;;7.35;74.83;95989.72;5033815;28;20901;-68
2021/05/07 05:08:24;;;;;;;1.73;1.63;;;;;;;7.41;74.55;95993.47;5034431;28;20181;-68
2021/05/07 05:10:54;;;;;;;1.47;1.37;;;;;;;7.06;75.34;95996.19;5033424;28;20175;-69
2021/05/07 05:13:20;;;;;;;1.50;1.40;;;;;;;7.16;75.00;95996.03;5032373;28;20425;-68
2021/05/07 05:15:53;;;;;;;1.50;1.40;;;;;;;7.06;74.97;96003.16;5032239;28;21066;-67
2021/05/07 05:18:33;;;;;;;1.40;1.30;;;;;;;6.84;75.34;96002.78;5048155;28;20196;-69
2021/05/07 05:21:00;;;;;;;1.70;1.40;;;;;;;7.02;74.99;96005.28;5032230;28;20485;-69
2021/05/07 05:23:27;;;;;;;3.00;1.70;;;;;;;6.75;75.83;96007.16;5031940;28;20430;-69
2021/05/07 05:25:53;;;;;;;1.50;1.33;;;;;;;6.90;75.83;96009.97;5029927;28;20435;-68
2021/05/07 05:28:18;;;;;;;1.47;1.37;;;;;;;6.78;75.73;96013.84;5032370;28;20426;-70
2021/05/07 05:30:44;;;;;;;1.77;1.67;;;;;;;7.03;75.39;96019.13;5030838;28;20472;-69
2021/05/07 05:33:09;;;;;;;1.80;1.70;;;;;;;7.04;75.14;96025.97;5028860;28;20275;-69
2021/05/07 05:35:35;;;;;;;2.20;2.00;;;;;;;7.12;75.42;96033.00;5033908;28;20203;-70
2021/05/07 05:38:01;;;;;;;2.10;1.70;;;;;;;7.18;74.66;96029.75;5032296;28;20176;-70
2021/05/07 05:40:27;;;;;;;2.07;1.53;;;;;;;6.97;74.79;96048.41;5032582;28;20182;-69
2021/05/07 05:42:52;;;;;;;2.47;2.27;;;;;;;7.01;75.07;96039.31;5031903;28;20444;-68
2021/05/07 05:45:18;;;;;;;2.40;2.20;;;;;;;7.00;74.80;96037.69;5030545;28;20669;-67
2021/05/07 05:47:44;;;;;;;2.80;2.50;;;;;;;7.07;74.63;96041.25;5032125;28;20207;-68
2021/05/07 05:50:10;;;;;;;4.40;2.40;;;;;;;7.06;73.92;96053.50;5047359;28;20290;-70
2021/05/07 05:52:36;;;;;;;4.03;3.10;;;;;;;7.11;73.94;96049.59;5050973;28;20175;-68
2021/05/07 05:55:03;;;;;;;5.80;3.63;;;;;;;7.08;74.36;96050.72;5032249;28;20451;-68
2021/05/07 05:57:28;;;;;;;3.47;2.83;;;;;;;7.29;73.97;96057.31;5031321;28;20187;-69
2021/05/07 05:59:54;;;;;;;7.13;3.50;;;;;;;7.05;73.86;96069.28;5033199;28;20912;-69
2021/05/07 06:02:19;;;;;;;4.00;3.70;;;;;;;7.28;72.79;96061.69;5032643;28;20176;-67
2021/05/07 06:04:45;;;;;;;4.20;3.80;;;;;;;7.23;73.88;96059.56;5015035;28;20246;-67
2021/05/07 06:07:11;;;;;;;6.80;3.30;;;;;;;7.35;73.85;96065.31;5035032;28;20176;-68
2021/05/07 06:09:36;;;;;;;5.50;3.90;;;;;;;7.21;73.93;96069.31;5036452;28;20190;-69
2021/05/07 06:12:06;;;;;;;4.23;3.83;;;;;;;7.86;71.14;96069.59;5036440;28;20211;-69
2021/05/07 06:14:33;;;;;;;8.10;5.43;;;;;;;7.46;72.40;96071.97;5035310;28;20574;-68
2021/05/07 06:16:59;;;;;;;6.10;4.47;;;;;;;7.66;72.25;96084.75;5036849;28;20415;-69
2021/05/07 06:19:25;;;;;;;4.70;4.23;;;;;;;7.54;73.08;96081.59;5035011;28;20956;-69
2021/05/07 06:21:50;;;;;;;5.93;4.40;;;;;;;7.74;71.79;96091.75;5036759;28;20191;-70
2021/05/07 06:24:16;;;;;;;6.10;4.53;;;;;;;7.43;72.14;96079.31;5050904;28;20180;-69
2021/05/07 06:26:42;;;;;;;5.90;4.83;;;;;;;7.62;71.62;96083.41;5034411;28;20290;-68
2021/05/07 06:29:07;;;;;;;5.63;4.73;;;;;;;7.33;72.11;96082.88;5035176;28;20226;-69
2021/05/07 06:31:33;;;;;;;6.50;5.70;;;;;;;7.76;71.32;96095.81;5052048;28;20249;-69
2021/05/07 06:33:58;;;;;;;6.20;5.60;;;;;;;8.08;70.10;96096.81;5034674;28;20582;-69
2021/05/07 06:36:24;;;;;;;5.73;5.13;;;;;;;8.22;69.86;96105.78;5036610;28;20262;-68
2021/05/07 06:38:50;;;;;;;9.37;6.77;;;;;;;8.25;69.99;96099.41;5051010;28;20204;-68
2021/05/07 06:41:17;;;;;;;7.40;5.30;;;;;;;8.36;70.21;96106.91;5036574;28;20188;-69
2021/05/07 06:43:43;;;;;;;9.23;5.53;;;;;;;8.50;68.69;96109.84;5034553;28;20662;-69
2021/05/07 06:46:08;;;;;;;7.37;5.93;;;;;;;8.37;70.28;96118.97;5035068;28;20593;-70
2021/05/07 06:48:34;;;;;;;7.60;6.07;;;;;;;8.91;68.82;96114.97;5035345;28;20245;-69
2021/05/07 06:51:00;;;;;;;7.97;6.07;;;;;;;8.48;69.25;96115.25;5034544;28;20180;-70
2021/05/07 06:53:25;;;;;;;8.30;6.17;;;;;;;8.45;69.43;96121.56;5034675;28;20179;-69
2021/05/07 06:55:51;;;;;;;9.77;6.83;;;;;;;8.28;69.34;96126.00;5036974;28;20210;-69
2021/05/07 06:58:17;;;;;;;10.40;7.07;;;;;;;8.19;68.74;96128.78;5036198;28;20184;-68
2021/05/07 07:00:43;;;;;;;7.97;6.10;;;;;;;8.14;69.88;96124.88;5034184;28;20210;-70
2021/05/07 07:03:08;;;;;;;8.47;7.57;;;;;;;8.53;69.84;96128.59;5038011;28;20187;-70
2021/05/07 07:05:34;;;;;;;8.97;7.23;;;;;;;8.39;68.32;96135.28;5034805;28;20482;-68
2021/05/07 07:07:59;;;;;;;8.60;7.17;;;;;;;8.74;68.25;96135.91;5027007;28;20184;-69
2021/05/07 07:10:25;;;;;;;8.30;7.47;;;;;;;8.33;68.85;96142.97;5033482;28;20619;-70
2021/05/07 07:12:51;;;;;;;10.50;7.70;;;;;;;8.11;67.87;96146.06;5039527;28;20226;-69
2021/05/07 07:15:16;;;;;;;8.63;7.03;;;;;;;8.39;67.31;96147.53;5034607;28;20234;-69
2021/05/07 07:17:42;;;;;;;8.63;7.37;;;;;;;8.30;68.30;96154.56;5032983;28;20179;-68
2021/05/07 07:20:08;;;;;;;9.87;7.70;;;;;;;8.23;68.44;96154.41;5032943;28;20206;-69
2021/05/07 07:22:34;;;;;;;8.40;7.27;;;;;;;7.97;68.40;96164.97;5034068;28;20688;-66
2021/05/07 07:24:59;;;;;;;11.53;8.50;;;;;;;7.78;70.01;96169.53;5026857;28;20442;-70
2021/05/07 07:27:25;;;;;;;13.97;7.80;;;;;;;8.24;68.84;96173.47;5035368;28;20182;-70
2021/05/07 07:29:51;;;;;;;8.47;7.37;;;;;;;8.37;68.15;96173.00;5051029;28;20553;-68
2021/05/07 07:32:19;;;;;;;9.73;8.20;;;;;;;8.41;68.48;96171.69;5018825;28;20176;-68
2021/05/07 07:34:45;;;;;;;11.00;8.20;;;;;;;8.17;69.97;96177.72;5033524;28;20651;-70
2021/05/07 07:37:11;;;;;;;8.60;7.30;;;;;;;7.83;70.54;96175.06;5035008;28;20426;-69
2021/05/07 07:39:40;;;;;;;10.30;7.57;;;;;;;8.02;69.24;96180.97;5044818;28;20526;-70
2021/05/07 07:42:06;;;;;;;14.40;9.07;;;;;;;8.50;68.13;96189.03;5047712;28;20222;-69
2021/05/07 07:44:31;;;;;;;11.90;9.47;;;;;;;9.06;66.71;96183.88;5052491;28;20424;-69
2021/05/07 07:46:57;;;;;;;10.10;8.97;;;;;;;8.74;68.03;96188.16;5036451;28;20183;-69
2021/05/07 07:49:22;;;;;;;12.03;8.90;;;;;;;8.36;67.63;96192.25;5039925;28;20689;-69
2021/05/07 07:51:48;;;;;;;10.00;8.83;;;;;;;8.39;67.95;96203.19;5038166;28;20206;-69
2021/05/07 07:54:14;;;;;;;13.83;8.40;;;;;;;7.97;69.42;96198.88;5042824;28;20191;-70
2021/05/07 07:56:40;;;;;;;11.80;8.60;;;;;;;8.09;67.57;96200.22;5045071;28;20200;-72
2021/05/07 07:59:06;;;;;;;9.60;8.50;;;;;;;8.52;67.79;96194.88;5043578;28;20204;-68
2021/05/07 08:01:31;;;;;;;8.10;7.30;;;;;;;8.52;66.60;96207.13;5034774;28;20429;-67
2021/05/07 08:03:57;;;;;;;9.23;8.33;;;;;;;8.70;65.75;96199.13;5036951;28;20183;-68
2021/05/07 08:06:23;;;;;;;11.67;6.07;;;;;;;9.37;63.77;96211.06;5021704;28;20198;-65
2021/05/07 08:08:49;;;;;;;8.00;6.63;;;;;;;8.90;66.58;96225.72;5043815;28;20632;-65
2021/05/07 08:11:15;;;;;;;7.70;6.77;;;;;;;9.13;62.46;96228.44;5033755;28;20223;-65
2021/05/07 08:13:40;;;;;;;6.03;5.40;;;;;;;9.87;58.89;96227.34;5032591;28;20427;-65
2021/05/07 08:16:06;;;;;;;7.17;5.33;;;;;;;10.17;59.12;96229.28;5034205;28;20274;-65
2021/05/07 08:18:32;;;;;;;6.80;5.57;;;;;;;10.70;59.57;96234.69;5032070;28;20234;-65
2021/05/07 08:20:58;;;;;;;6.60;5.60;;;;;;;10.37;57.69;96245.38;5027733;28;20179;-64
2021/05/07 08:23:23;;;;;;;8.77;4.90;;;;;;;12.12;55.27;96231.16;5032865;28;20246;-65
2021/05/07 08:25:49;;;;;;;7.10;5.30;;;;;;;12.59;52.28;96236.88;5031853;28;20203;-65
2021/05/07 08:28:14;;;;;;;9.70;5.50;;;;;;;11.97;54.81;96246.13;5032172;28;20180;-65
2021/05/07 08:30:40;;;;;;;8.50;5.17;;;;;;;11.71;50.95;96251.84;5029134;28;20175;-68
2021/05/07 08:33:06;;;;;;;4.20;3.80;;;;;;;12.34;53.33;96262.72;5031575;28;20330;-65
2021/05/07 08:35:32;;;;;;;5.80;4.70;;;;;;;11.01;52.48;96262.59;5031130;28;20744;-65
2021/05/07 08:38:01;;;;;;;6.97;5.40;;;;;;;10.89;53.55;96263.00;5032895;28;20207;-64
2021/05/07 08:40:27;;;;;;;6.93;3.37;;;;;;;11.87;55.12;96259.53;5014971;28;20458;-66
2021/05/07 08:42:54;;;;;;;7.00;5.10;;;;;;;12.12;53.69;96270.56;5030241;28;21157;-65
2021/05/07 08:45:20;;;;;;;4.50;4.00;;;;;;;12.54;53.56;96267.34;5031257;28;20214;-66
2021/05/07 08:47:46;;;;;;;4.70;4.30;;;;;;;12.17;48.57;96271.81;5033144;28;20434;-65
2021/05/07 08:50:11;;;;;;;5.00;4.40;;;;;;;11.41;52.02;96273.66;5046916;28;20168;-65
2021/05/07 08:52:37;;;;;;;4.30;3.90;;;;;;;12.21;51.12;96291.47;5032147;28;20184;-66
2021/05/07 08:55:04;;;;;;;4.27;3.90;;;;;;;11.44;52.61;96289.06;5031037;28;20912;-64
2021/05/07 08:57:30;;;;;;;8.70;4.17;;;;;;;11.73;49.25;96294.47;5013851;28;20184;-65
2021/05/07 08:59:55;;;;;;;4.77;4.37;;;;;;;11.24;50.90;96307.13;5033957;28;20814;-64
2021/05/07 09:02:25;;;;;;;4.50;4.10;;;;;;;11.25;52.93;96308.75;5033860;28;20548;-65
2021/05/07 09:04:52;;;;;;;5.17;3.80;;;;;;;11.70;50.86;96302.72;5032325;28;20211;-64
2021/05/07 09:07:18;;;;;;;5.47;4.43;;;;;;;11.68;48.80;96301.09;5032865;28;20852;-65
2021/05/07 09:10:03;;;;;;;4.43;3.53;;;;;;;11.28;48.32;96300.50;5032552;28;20430;-66
2021/05/07 09:12:32;;;;;;;7.73;4.97;;;;;;;10.82;48.61;96317.16;5035966;28;20180;-67
2021/05/07 09:14:59;;;;;;;4.63;4.23;;;;;;;12.10;46.19;96304.06;5044839;28;21042;-67
2021/05/07 09:17:27;;;;;;;4.43;4.00;;;;;;;11.59;45.28;96307.41;5032880;28;20422;-66
2021/05/07 09:20:14;;;;;;;5.77;4.57;;;;;;;11.96;45.59;96307.50;5047181;28;20458;-67
2021/05/07 09:22:41;;;;;;;5.40;4.57;;;;;;;11.86;45.34;96312.19;5033820;28;20815;-66
2021/05/07 09:25:11;;;;;;;7.17;4.13;;;;;;;12.08;44.91;96316.59;5032350;28;20444;-66
2021/05/07 09:27:37;;;;;;;4.80;4.03;;;;;;;12.13;44.37;96316.81;5033226;28;20449;-65
2021/05/07 09:30:06;;;;;;;6.43;5.10;;;;;;;11.65;43.77;96321.63;5033470;28;20418;-69
2021/05/07 09:32:35;;;;;;;5.30;4.70;;;;;;;10.45;45.04;96339.66;5031810;28;20956;-69
2021/05/07 09:35:17;;;;;;;4.60;4.20;;;;;;;11.02;47.18;96340.25;5032728;28;20496;-71
2021/05/07 09:37:44;;;;;;;5.50;4.67;;;;;;;11.03;47.78;96349.75;5032572;28;20521;-68
2021/05/07 09:40:15;;;;;;;5.63;4.80;;;;;;;10.53;46.41;96344.84;5031745;28;20477;-69
2021/05/07 09:42:41;;;;;;;5.77;5.20;;;;;;;10.28;46.08;96347.56;5032618;28;20430;-69
2021/05/07 09:45:22;;;;;;;4.83;4.27;;;;;;;11.06;42.03;96338.91;5034889;28;20872;-68
2021/05/07 09:47:49;;;;;;;5.40;4.10;;;;;;;10.96;44.13;96357.50;5032842;28;20429;-69
2021/05/07 09:50:16;;;;;;;7.47;4.27;;;;;;;10.48;44.00;96365.50;5038511;28;20425;-68
2021/05/07 09:52:44;;;;;;;5.13;4.33;;;;;;;10.83;44.67;96365.13;5031790;28;20434;-69
2021/05/07 09:55:11;;;;;;;4.17;3.80;;;;;;;11.49;43.26;96362.78;5029991;28;20814;-68
2021/05/07 09:57:37;;;;;;;5.20;4.60;;;;;;;11.22;41.44;96370.22;5038433;28;20434;-67
2021/05/07 10:00:03;;;;;;;4.83;4.13;;;;;;;11.12;42.63;96385.41;5034535;28;20465;-70
2021/05/07 10:02:30;;;;;;;6.93;4.00;;;;;;;11.12;41.31;96380.16;5035694;28;20206;-69
2021/05/07 10:04:58;;;;;;;5.07;4.27;;;;;;;11.36;41.61;96376.53;5030516;28;20478;-70
2021/05/07 10:07:23;;;;;;;4.60;4.00;;;;;;;11.72;40.94;96397.84;5031791;28;20453;-69
2021/05/07 10:09:49;;;;;;;5.07;3.53;;;;;;;11.66;39.35;96381.00;5031708;28;20446;-69
2021/05/07 10:12:16;;;;;;;6.30;3.40;;;;;;;11.73;38.38;96371.41;5029670;28;20544;-69
2021/05/07 10:14:44;;;;;;;4.50;3.43;;;;;;;11.82;37.95;96380.84;5042719;28;20250;-71
2021/05/07 10:17:11;;;;;;;4.23;3.87;;;;;;;11.40;39.27;96379.59;5050481;28;20426;-69
2021/05/07 10:19:43;;;;;;;9.83;4.47;;;;;;;11.93;38.79;96378.75;5031765;28;20929;-69
2021/05/07 10:22:11;;;;;;;6.33;4.50;;;;;;;12.16;38.12;96383.13;5027787;28;20964;-69
2021/05/07 10:24:38;;;;;;;7.93;3.80;;;;;;;12.73;36.54;96386.84;5016071;28;20565;-70
2021/05/07 10:27:18;;;;;;;4.20;3.40;;;;;;;13.09;37.16;96391.22;5031678;28;20419;-70
2021/05/07 10:29:57;;;;;;;6.90;3.80;;;;;;;12.81;35.94;96391.16;5032302;28;20426;-68
2021/05/07 10:32:34;;;;;;;4.80;4.40;;;;;;;12.31;37.06;96404.13;5031199;28;20508;-68
2021/05/07 10:35:00;;;;;;;4.13;3.10;;;;;;;12.32;36.73;96414.47;5028143;28;20453;-70
2021/05/07 10:37:39;;;;;;;5.00;2.93;;;;;;;12.70;36.06;96409.06;5054549;28;20900;-69
2021/05/07 10:40:06;;;;;;;5.93;3.23;;;;;;;11.94;36.30;96438.16;5031548;28;20200;-68
2021/05/07 10:42:32;;;;;;;3.60;3.20;;;;;;;11.96;37.47;96428.28;5032176;28;20517;-68
2021/05/07 10:44:59;;;;;;;3.97;3.07;;;;;;;12.32;38.05;96426.78;5030369;28;20524;-68
2021/05/07 10:47:31;;;;;;;5.47;3.57;;;;;;;12.58;38.05;96429.75;5031552;28;20666;-69
2021/05/07 10:49:57;;;;;;;5.53;3.77;;;;;;;11.64;38.28;96435.47;5030068;28;20652;-68
2021/05/07 10:52:23;;;;;;;3.80;3.40;;;;;;;11.91;38.07;96446.38;5030366;28;20536;-68
2021/05/07 10:54:54;;;;;;;3.63;3.00;;;;;;;12.45;38.07;96437.44;5035162;28;20546;-68
2021/05/07 10:57:20;;;;;;;6.17;3.60;;;;;;;12.28;37.16;96447.34;5019770;28;20660;-69
2021/05/07 10:59:56;;;;;;;6.60;4.20;;;;;;;11.87;36.85;96459.06;5034688;28;20526;-67
2021/05/07 11:02:23;;;;;;;5.20;3.70;;;;;;;11.41;37.77;96466.97;5035510;28;20422;-68
2021/05/07 11:04:49;;;;;;;4.87;3.73;;;;;;;11.67;37.85;96461.38;5050115;28;20920;-68
2021/05/07 11:07:28;;;;;;;4.53;3.60;;;;;;;12.48;37.42;96452.03;5033895;28;20917;-68
2021/05/07 11:10:08;;;;;;;4.67;3.40;;;;;;;12.79;36.85;96456.25;5034078;28;20423;-69
2021/05/07 11:12:36;;;;;;;4.53;3.37;;;;;;;12.43;37.11;96469.19;5050283;28;20424;-69
2021/05/07 11:15:01;;;;;;;7.33;5.73;;;;;;;12.94;35.82;96475.47;5028965;28;20438;-69
2021/05/07 11:17:27;;;;;;;4.17;3.37;;;;;;;12.40;36.93;96468.75;5034806;28;20948;-69
2021/05/07 11:19:52;;;;;;;5.53;3.87;;;;;;;11.84;37.12;96483.84;5032704;28;20207;-68
2021/05/07 11:22:24;;;;;;;8.33;3.60;;;;;;;11.58;38.16;96472.94;5035187;28;20629;-69
2021/05/07 11:24:50;;;;;;;4.87;3.73;;;;;;;11.13;38.91;96486.69;5033418;28;20263;-69
2021/05/07 11:27:24;;;;;;;6.23;4.10;;;;;;;12.27;37.79;96487.75;5034365;28;20942;-67
2021/05/07 11:29:51;;;;;;;5.90;4.77;;;;;;;12.55;37.88;96487.91;5034593;28;20694;-69
2021/05/07 11:32:18;;;;;;;4.27;3.80;;;;;;;12.37;38.43;96487.47;5033192;28;20796;-68
2021/05/07 11:35:00;;;;;;;6.97;4.67;;;;;;;12.84;36.92;96495.97;5050325;28;20513;-68
2021/05/07 11:37:27;;;;;;;6.47;4.03;;;;;;;13.03;36.80;96474.34;5034348;28;20418;-68
2021/05/07 11:40:08;;;;;;;3.30;3.10;;;;;;;13.31;36.49;96494.69;5034136;28;20545;-68